Date,TemperatureHighF,TemperatureAvgF,TemperatureLowF,DewpointHighF,DewpointAvgF,DewpointLowF,HumidityHigh,HumidityAvg,HumidityLow,PressureMaxIn,PressureMinIn,WindSpeedMaxMPH,WindSpeedAvgMPH,GustSpeedMaxMPH,PrecipitationSumIn
2013-12-1,39.1,32.5,27.7,33.0,27.6,21.0,96,82,67,30.22,29.96,3,0,5,0.20
2013-12-2,42.5,35.5,32.4,35.0,32.4,31.0,97,89,68,29.96,29.85,3,0,4,0.17
2013-12-3,40.8,31.9,24.2,31.0,27.8,23.0,96,86,61,30.01,29.90,5,0,7,0.02
2013-12-4,47.1,37.2,26.9,40.0,34.1,26.0,96,88,73,30.04,29.91,6,1,9,0.01
2013-12-5,59.7,51.1,40.7,53.2,45.0,33.5,89,80,62,30.48,29.73,22,7,22,0.00
2013-12-6,40.6,33.5,30.8,34.4,28.5,23.4,95,82,71,30.74,30.13,12,5,12,0.20
2013-12-7,30.8,27.9,24.5,26.2,19.6,14.4,88,71,54,31.05,30.72,21,11,21,0.00
2013-12-8,28.2,24.3,17.9,22.9,15.5,12.1,91,69,54,31.08,30.51,15,4,15,0.00
2013-12-9,41.6,33.8,25.4,35.8,28.9,22.6,91,82,70,30.74,30.02,28,11,28,0.04
2013-12-10,33.6,25.1,19.6,25.2,16.8,9.0,93,71,59,30.55,30.41,26,12,26,0.00
2013-12-11,24.0,20.8,14.6,20.3,13.2,8.4,90,73,58,30.77,30.55,30,12,30,0.00
2013-12-12,18.2,15.2,10.3,13.5,9.6,5.7,91,78,61,30.82,30.54,23,10,23,0.00
2013-12-13,23.4,18.5,13.1,20.0,13.3,7.3,92,80,63,30.91,30.04,25,9,25,0.00
2013-12-14,22.4,12.0,6.4,20.9,8.4,-2.9,94,85,62,30.98,30.28,12,5,12,0.00
2013-12-15,23.3,20.5,15.2,21.8,17.1,9.9,94,87,64,30.33,29.77,26,8,26,0.00
2013-12-16,21.9,13.4,-4.6,16.2,8.7,-7.5,91,81,66,30.70,30.00,26,8,26,0.00
2013-12-17,28.0,16.1,-8.1,25.0,13.1,-11.9,92,88,81,30.68,29.93,12,2,12,0.00
2013-12-18,31.2,27.9,23.6,23.6,21.5,19.5,94,77,63,30.57,30.02,21,8,21,0.00
2013-12-19,42.1,34.6,25.1,33.1,25.9,17.3,85,71,57,30.54,29.91,21,4,21,0.03
2013-12-20,45.0,38.7,33.7,41.6,36.3,31.0,97,91,78,30.50,30.27,9,1,9,0.05
2013-12-21,53.5,39.3,31.3,51.2,38.4,30.3,98,97,90,30.38,30.22,12,2,12,0.78
2013-12-22,44.9,35.3,30.9,42.3,34.0,29.9,98,95,87,30.45,29.70,20,5,20,0.23
2013-12-23,40.9,37.3,26.7,37.9,34.2,24.0,94,88,70,30.50,30.12,16,4,18,0.00
2013-12-24,26.8,18.3,9.2,24.0,15.4,5.8,93,88,79,31.01,30.20,13,4,22,0.00
2013-12-25,25.3,18.9,1.1,17.9,11.8,-2.0,91,74,67,31.01,30.23,8,2,14,0.00
2013-12-26,32.9,26.8,21.5,28.0,20.1,13.3,93,76,65,30.78,30.06,18,5,29,0.00
2013-12-27,40.6,28.9,21.5,28.8,23.8,13.0,93,81,62,30.75,30.09,9,3,20,0.00
2013-12-28,44.0,37.4,28.1,35.0,30.6,25.0,95,77,62,30.58,29.94,17,4,22,0.00
2013-12-29,45.6,36.9,21.0,39.3,31.6,15.5,97,82,63,30.47,29.61,16,3,27,0.20
2013-12-30,29.8,16.6,13.8,28.0,11.7,7.2,92,81,73,30.72,29.73,18,4,23,0.00
2013-12-31,24.0,18.2,14.1,18.0,9.8,3.0,85,70,58,30.81,29.97,22,9,39,0.00